sensor_id;sensor_type;location;lat;lon;timestamp;pressure;altitude;pressure_sealevel;temperature;humidity
42633;BME280;28261;53.304;-6.284;2023-07-02T00:01:08;100630.56;;;13.16;76.16
42633;BME280;28261;53.304;-6.284;2023-07-02T00:03:12;100629.69;;;13.16;76.01
42633;BME280;28261;53.304;-6.284;2023-07-02T00:05:16;100635.88;;;13.16;76.29
42633;BME280;28261;53.304;-6.284;2023-07-02T00:07:20;100632.47;;;13.14;75.82
42633;BME280;28261;53.304;-6.284;2023-07-02T00:09:24;100626.31;;;13.14;76.63
42633;BME280;28261;53.304;-6.284;2023-07-02T00:11:28;100635.38;;;13.11;76.70
42633;BME280;28261;53.304;-6.284;2023-07-02T00:13:32;100626.66;;;13.09;76.72
42633;BME280;28261;53.304;-6.284;2023-07-02T00:15:36;100632.00;;;13.09;76.34
42633;BME280;28261;53.304;-6.284;2023-07-02T00:17:41;100630.41;;;13.07;76.54
42633;BME280;28261;53.304;-6.284;2023-07-02T00:19:45;100628.97;;;13.02;77.26
42633;BME280;28261;53.304;-6.284;2023-07-02T00:21:49;100630.66;;;13.03;77.00
42633;BME280;28261;53.304;-6.284;2023-07-02T00:23:55;100628.13;;;13.02;77.40
42633;BME280;28261;53.304;-6.284;2023-07-02T00:25:59;100628.13;;;13.02;77.34
42633;BME280;28261;53.304;-6.284;2023-07-02T00:28:04;100629.09;;;13.01;77.76
42633;BME280;28261;53.304;-6.284;2023-07-02T00:30:09;100617.59;;;13.00;76.82
42633;BME280;28261;53.304;-6.284;2023-07-02T00:32:13;100626.69;;;12.98;77.49
42633;BME280;28261;53.304;-6.284;2023-07-02T00:34:19;100632.00;;;12.98;77.26
42633;BME280;28261;53.304;-6.284;2023-07-02T00:36:22;100632.25;;;12.95;77.84
42633;BME280;28261;53.304;-6.284;2023-07-02T00:38:26;100635.88;;;12.94;77.85
42633;BME280;28261;53.304;-6.284;2023-07-02T00:40:31;100636.69;;;12.94;78.47
42633;BME280;28261;53.304;-6.284;2023-07-02T00:42:34;100633.47;;;12.91;78.01
42633;BME280;28261;53.304;-6.284;2023-07-02T00:44:38;100633.59;;;12.89;77.82
42633;BME280;28261;53.304;-6.284;2023-07-02T00:46:43;100638.28;;;12.85;78.65
42633;BME280;28261;53.304;-6.284;2023-07-02T00:48:55;100624.25;;;12.83;78.97
42633;BME280;28261;53.304;-6.284;2023-07-02T00:51:01;100631.50;;;12.81;78.70
42633;BME280;28261;53.304;-6.284;2023-07-02T00:53:05;100628.00;;;12.81;78.87
42633;BME280;28261;53.304;-6.284;2023-07-02T00:55:09;100625.44;;;12.79;79.35
42633;BME280;28261;53.304;-6.284;2023-07-02T00:57:13;100627.16;;;12.80;79.55
42633;BME280;28261;53.304;-6.284;2023-07-02T00:59:17;100626.19;;;12.81;79.79
42633;BME280;28261;53.304;-6.284;2023-07-02T01:01:23;100626.06;;;12.83;80.59
42633;BME280;28261;53.304;-6.284;2023-07-02T01:03:27;100618.91;;;12.83;80.31
42633;BME280;28261;53.304;-6.284;2023-07-02T01:05:35;100632.97;;;12.85;80.69
42633;BME280;28261;53.304;-6.284;2023-07-02T01:07:40;100630.19;;;12.87;80.20
42633;BME280;28261;53.304;-6.284;2023-07-02T01:09:46;100635.25;;;12.90;80.10
42633;BME280;28261;53.304;-6.284;2023-07-02T01:11:53;100634.41;;;12.90;80.37
42633;BME280;28261;53.304;-6.284;2023-07-02T01:14:01;100635.38;;;12.89;80.60
42633;BME280;28261;53.304;-6.284;2023-07-02T01:16:06;100631.88;;;12.88;79.94
42633;BME280;28261;53.304;-6.284;2023-07-02T01:18:11;100627.50;;;12.87;80.23
42633;BME280;28261;53.304;-6.284;2023-07-02T01:20:17;100624.16;;;12.85;80.74
42633;BME280;28261;53.304;-6.284;2023-07-02T01:22:23;100624.16;;;12.85;80.72
42633;BME280;28261;53.304;-6.284;2023-07-02T01:24:27;100628.72;;;12.83;80.34
42633;BME280;28261;53.304;-6.284;2023-07-02T01:26:32;100621.81;;;12.80;80.77
42633;BME280;28261;53.304;-6.284;2023-07-02T01:28:36;100632.84;;;12.76;80.68
42633;BME280;28261;53.304;-6.284;2023-07-02T01:30:40;100646.25;;;12.74;80.55
42633;BME280;28261;53.304;-6.284;2023-07-02T01:32:44;100637.53;;;12.72;80.94
42633;BME280;28261;53.304;-6.284;2023-07-02T01:34:48;100645.63;;;12.70;81.04
42633;BME280;28261;53.304;-6.284;2023-07-02T01:36:57;100639.50;;;12.70;80.91
42633;BME280;28261;53.304;-6.284;2023-07-02T01:39:02;100643.22;;;12.67;80.58
42633;BME280;28261;53.304;-6.284;2023-07-02T01:41:06;100648.66;;;12.66;81.17
42633;BME280;28261;53.304;-6.284;2023-07-02T01:43:09;100640.06;;;12.62;81.22
42633;BME280;28261;53.304;-6.284;2023-07-02T01:45:13;100648.03;;;12.62;80.88
42633;BME280;28261;53.304;-6.284;2023-07-02T01:47:17;100643.56;;;12.63;81.05
42633;BME280;28261;53.304;-6.284;2023-07-02T01:49:22;100639.94;;;12.64;80.93
42633;BME280;28261;53.304;-6.284;2023-07-02T01:51:26;100641.66;;;12.65;81.53
42633;BME280;28261;53.304;-6.284;2023-07-02T01:53:32;100643.22;;;12.67;81.43
42633;BME280;28261;53.304;-6.284;2023-07-02T01:55:35;100637.78;;;12.69;81.25
42633;BME280;28261;53.304;-6.284;2023-07-02T01:57:39;100642.97;;;12.70;81.29
42633;BME280;28261;53.304;-6.284;2023-07-02T01:59:43;100639.50;;;12.70;81.11
42633;BME280;28261;53.304;-6.284;2023-07-02T02:01:47;100636.69;;;12.72;80.75
42633;BME280;28261;53.304;-6.284;2023-07-02T02:03:52;100641.16;;;12.71;80.94
42633;BME280;28261;53.304;-6.284;2023-07-02T02:05:56;100633.91;;;12.73;81.42
42633;BME280;28261;53.304;-6.284;2023-07-02T02:07:59;100634.53;;;12.77;80.48
42633;BME280;28261;53.304;-6.284;2023-07-02T02:10:06;100640.44;;;12.80;80.48
42633;BME280;28261;53.304;-6.284;2023-07-02T02:12:12;100634.88;;;12.83;79.99
42633;BME280;28261;53.304;-6.284;2023-07-02T02:14:16;100630.31;;;12.85;80.49
42633;BME280;28261;53.304;-6.284;2023-07-02T02:16:20;100638.16;;;12.87;79.83
42633;BME280;28261;53.304;-6.284;2023-07-02T02:18:24;100634.66;;;12.86;80.22
42633;BME280;28261;53.304;-6.284;2023-07-02T02:20:28;100634.66;;;12.86;80.83
42633;BME280;28261;53.304;-6.284;2023-07-02T02:22:34;100627.38;;;12.89;79.46
42633;BME280;28261;53.304;-6.284;2023-07-02T02:24:39;100632.50;;;12.92;79.76
42633;BME280;28261;53.304;-6.284;2023-07-02T02:26:44;100632.50;;;12.92;80.09
42633;BME280;28261;53.304;-6.284;2023-07-02T02:28:47;100628.00;;;12.92;79.11
42633;BME280;28261;53.304;-6.284;2023-07-02T02:30:51;100631.38;;;12.94;79.50
42633;BME280;28261;53.304;-6.284;2023-07-02T02:32:55;100641.06;;;12.95;79.88
42633;BME280;28261;53.304;-6.284;2023-07-02T02:35:00;100640.09;;;12.96;79.61
42633;BME280;28261;53.304;-6.284;2023-07-02T02:37:05;100643.72;;;12.95;79.73
42633;BME280;28261;53.304;-6.284;2023-07-02T02:39:08;100641.19;;;12.94;78.95
42633;BME280;28261;53.304;-6.284;2023-07-02T02:41:12;100635.03;;;12.93;79.21
42633;BME280;28261;53.304;-6.284;2023-07-02T02:43:22;100633.47;;;12.91;80.00
42633;BME280;28261;53.304;-6.284;2023-07-02T02:45:25;100638.78;;;12.91;79.98
42633;BME280;28261;53.304;-6.284;2023-07-02T02:47:29;100641.31;;;12.92;79.46
42633;BME280;28261;53.304;-6.284;2023-07-02T02:49:33;100633.22;;;12.94;79.75
42633;BME280;28261;53.304;-6.284;2023-07-02T02:51:36;100634.78;;;12.96;78.97
42633;BME280;28261;53.304;-6.284;2023-07-02T02:53:40;100630.28;;;12.97;79.66
42633;BME280;28261;53.304;-6.284;2023-07-02T02:55:43;100634.66;;;12.98;79.34
42633;BME280;28261;53.304;-6.284;2023-07-02T02:57:46;100633.81;;;12.97;79.72
42633;BME280;28261;53.304;-6.284;2023-07-02T02:59:51;100622.31;;;12.97;79.85
42633;BME280;28261;53.304;-6.284;2023-07-02T03:01:55;100632.00;;;12.98;79.62
42633;BME280;28261;53.304;-6.284;2023-07-02T03:03:59;100633.69;;;12.99;79.98
42633;BME280;28261;53.304;-6.284;2023-07-02T03:06:02;100631.75;;;13.01;79.61
42633;BME280;28261;53.304;-6.284;2023-07-02T03:08:06;100629.09;;;13.01;79.98
42633;BME280;28261;53.304;-6.284;2023-07-02T03:10:09;100640.72;;;13.00;79.99
42633;BME280;28261;53.304;-6.284;2023-07-02T03:12:13;100633.44;;;13.02;79.44
42633;BME280;28261;53.304;-6.284;2023-07-02T03:14:16;100633.44;;;13.02;79.45
42633;BME280;28261;53.304;-6.284;2023-07-02T03:16:22;100632.50;;;13.03;79.59
42633;BME280;28261;53.304;-6.284;2023-07-02T03:18:25;100628.13;;;13.02;79.54
42633;BME280;28261;53.304;-6.284;2023-07-02T03:20:28;100629.81;;;13.03;78.95
42633;BME280;28261;53.304;-6.284;2023-07-02T03:22:32;100620.97;;;13.02;79.76
42633;BME280;28261;53.304;-6.284;2023-07-02T03:24:35;100617.47;;;13.02;78.76
42633;BME280;28261;53.304;-6.284;2023-07-02T03:26:39;100621.47;;;12.96;79.39
42633;BME280;28261;53.304;-6.284;2023-07-02T03:28:42;100622.69;;;12.92;79.32
42633;BME280;28261;53.304;-6.284;2023-07-02T03:30:46;100615.06;;;12.88;79.95
42633;BME280;28261;53.304;-6.284;2023-07-02T03:32:51;100618.09;;;12.83;79.40
42633;BME280;28261;53.304;-6.284;2023-07-02T03:34:55;100617.59;;;12.78;79.48
42633;BME280;28261;53.304;-6.284;2023-07-02T03:36:58;100610.94;;;12.72;79.30
42633;BME280;28261;53.304;-6.284;2023-07-02T03:39:01;100611.19;;;12.69;79.81
42633;BME280;28261;53.304;-6.284;2023-07-02T03:41:05;100608.66;;;12.67;79.64
42633;BME280;28261;53.304;-6.284;2023-07-02T03:43:08;100604.53;;;12.63;79.84
42633;BME280;28261;53.304;-6.284;2023-07-02T03:45:12;100609.97;;;12.62;79.57
42633;BME280;28261;53.304;-6.284;2023-07-02T03:47:15;100605.00;;;12.57;79.48
42633;BME280;28261;53.304;-6.284;2023-07-02T03:49:23;100609.47;;;12.57;79.49
42633;BME280;28261;53.304;-6.284;2023-07-02T03:51:26;100612.97;;;12.57;79.39
42633;BME280;28261;53.304;-6.284;2023-07-02T03:53:29;100610.19;;;12.59;79.11
42633;BME280;28261;53.304;-6.284;2023-07-02T03:55:32;100617.22;;;12.60;78.71
42633;BME280;28261;53.304;-6.284;2023-07-02T03:57:36;100609.00;;;12.63;78.63
42633;BME280;28261;53.304;-6.284;2023-07-02T03:59:39;100609.72;;;12.65;77.74
42633;BME280;28261;53.304;-6.284;2023-07-02T04:01:42;100611.31;;;12.67;77.82
42633;BME280;28261;53.304;-6.284;2023-07-02T04:03:48;100600.56;;;12.69;78.35
42633;BME280;28261;53.304;-6.284;2023-07-02T04:05:54;100603.91;;;12.71;78.00
42633;BME280;28261;53.304;-6.284;2023-07-02T04:07:58;100604.53;;;12.75;77.40
42633;BME280;28261;53.304;-6.284;2023-07-02T04:10:02;100603.44;;;12.77;77.23
42633;BME280;28261;53.304;-6.284;2023-07-02T04:12:06;100604.06;;;12.81;77.46
42633;BME280;28261;53.304;-6.284;2023-07-02T04:14:10;100611.06;;;12.82;76.97
42633;BME280;28261;53.304;-6.284;2023-07-02T04:16:14;100608.28;;;12.83;76.53
42633;BME280;28261;53.304;-6.284;2023-07-02T04:18:17;100606.59;;;12.82;76.81
42633;BME280;28261;53.304;-6.284;2023-07-02T04:20:21;100608.28;;;12.83;76.78
42633;BME280;28261;53.304;-6.284;2023-07-02T04:22:26;100602.88;;;12.85;76.92
42633;BME280;28261;53.304;-6.284;2023-07-02T04:24:30;100613.50;;;12.85;76.91
42633;BME280;28261;53.304;-6.284;2023-07-02T04:26:34;100605.28;;;12.88;77.21
42633;BME280;28261;53.304;-6.284;2023-07-02T04:28:58;100605.16;;;12.90;77.50
42633;BME280;28261;53.304;-6.284;2023-07-02T04:31:02;100601.53;;;12.91;76.62
42633;BME280;28261;53.304;-6.284;2023-07-02T04:33:05;100606.72;;;12.92;76.66
42633;BME280;28261;53.304;-6.284;2023-07-02T04:35:09;100590.75;;;12.92;76.33
42633;BME280;28261;53.304;-6.284;2023-07-02T04:37:13;100599.34;;;12.96;76.82
42633;BME280;28261;53.304;-6.284;2023-07-02T04:39:18;100591.38;;;12.96;76.63
42633;BME280;28261;53.304;-6.284;2023-07-02T04:41:22;100598.38;;;12.97;76.65
42633;BME280;28261;53.304;-6.284;2023-07-02T04:43:25;100605.38;;;12.98;76.54
42633;BME280;28261;53.304;-6.284;2023-07-02T04:45:32;100599.09;;;12.99;75.83
42633;BME280;28261;53.304;-6.284;2023-07-02T04:47:39;100602.59;;;12.99;76.12
42633;BME280;28261;53.304;-6.284;2023-07-02T04:49:42;100599.81;;;13.01;75.70
42633;BME280;28261;53.304;-6.284;2023-07-02T04:51:45;100600.56;;;13.03;76.02
42633;BME280;28261;53.304;-6.284;2023-07-02T04:53:49;100603.81;;;13.07;75.66
42633;BME280;28261;53.304;-6.284;2023-07-02T04:55:55;100601.03;;;13.08;76.09
42633;BME280;28261;53.304;-6.284;2023-07-02T04:58:08;100596.56;;;13.09;75.61
42633;BME280;28261;53.304;-6.284;2023-07-02T05:00:13;100600.91;;;13.10;75.82
42633;BME280;28261;53.304;-6.284;2023-07-02T05:02:16;100604.41;;;13.10;75.62
42633;BME280;28261;53.304;-6.284;2023-07-02T05:04:22;100605.16;;;13.12;75.38
42633;BME280;28261;53.304;-6.284;2023-07-02T05:06:26;100611.19;;;13.14;76.18
42633;BME280;28261;53.304;-6.284;2023-07-02T05:08:30;100611.19;;;13.14;76.03
42633;BME280;28261;53.304;-6.284;2023-07-02T05:10:34;100611.06;;;13.16;76.42
42633;BME280;28261;53.304;-6.284;2023-07-02T05:12:39;100608.41;;;13.16;75.83
42633;BME280;28261;53.304;-6.284;2023-07-02T05:14:43;100606.69;;;13.15;75.95
42633;BME280;28261;53.304;-6.284;2023-07-02T05:16:48;100608.53;;;13.14;75.64
42633;BME280;28261;53.304;-6.284;2023-07-02T05:18:53;100606.59;;;13.16;76.01
42633;BME280;28261;53.304;-6.284;2023-07-02T05:20:58;100611.06;;;13.16;76.31
42633;BME280;28261;53.304;-6.284;2023-07-02T05:23:02;100609.25;;;13.16;75.78
42633;BME280;28261;53.304;-6.284;2023-07-02T05:25:06;100609.25;;;13.16;75.77
42633;BME280;28261;53.304;-6.284;2023-07-02T05:27:11;100615.28;;;13.18;75.80
42633;BME280;28261;53.304;-6.284;2023-07-02T05:29:16;100609.00;;;13.19;75.86
42633;BME280;28261;53.304;-6.284;2023-07-02T05:31:20;100614.19;;;13.21;76.54
42633;BME280;28261;53.304;-6.284;2023-07-02T05:33:24;100613.38;;;13.20;76.04
42633;BME280;28261;53.304;-6.284;2023-07-02T05:35:28;100611.41;;;13.23;76.29
42633;BME280;28261;53.304;-6.284;2023-07-02T05:37:32;100611.28;;;13.24;76.32
42633;BME280;28261;53.304;-6.284;2023-07-02T05:39:35;100613.81;;;13.26;76.21
42633;BME280;28261;53.304;-6.284;2023-07-02T05:41:39;100615.53;;;13.27;76.74
42633;BME280;28261;53.304;-6.284;2023-07-02T05:43:42;100606.31;;;13.31;76.54
42633;BME280;28261;53.304;-6.284;2023-07-02T05:45:49;100600.75;;;13.34;76.43
42633;BME280;28261;53.304;-6.284;2023-07-02T05:47:53;100606.84;;;13.36;76.60
42633;BME280;28261;53.304;-6.284;2023-07-02T05:49:57;100609.84;;;13.43;76.84
42633;BME280;28261;53.304;-6.284;2023-07-02T05:52:01;100604.13;;;13.47;76.39
42633;BME280;28261;53.304;-6.284;2023-07-02T05:54:04;100603.66;;;13.53;76.33
42633;BME280;28261;53.304;-6.284;2023-07-02T05:56:08;100599.78;;;13.58;76.29
42633;BME280;28261;53.304;-6.284;2023-07-02T05:58:12;100602.16;;;13.61;76.35
42633;BME280;28261;53.304;-6.284;2023-07-02T06:00:16;100605.56;;;13.63;76.10
42633;BME280;28261;53.304;-6.284;2023-07-02T06:02:21;100607.97;;;13.66;76.25
42633;BME280;28261;53.304;-6.284;2023-07-02T06:04:24;100607.00;;;13.67;75.78
42633;BME280;28261;53.304;-6.284;2023-07-02T06:06:28;100606.75;;;13.70;75.40
42633;BME280;28261;53.304;-6.284;2023-07-02T06:08:32;100605.66;;;13.73;75.45
42633;BME280;28261;53.304;-6.284;2023-07-02T06:10:35;100609.63;;;13.78;75.59
42633;BME280;28261;53.304;-6.284;2023-07-02T06:12:39;100611.06;;;13.82;74.94
42633;BME280;28261;53.304;-6.284;2023-07-02T06:14:42;100615.16;;;13.86;75.14
42633;BME280;28261;53.304;-6.284;2023-07-02T06:16:46;100609.84;;;13.86;74.27
42633;BME280;28261;53.304;-6.284;2023-07-02T06:18:50;100613.94;;;13.91;74.51
42633;BME280;28261;53.304;-6.284;2023-07-02T06:20:54;100611.88;;;13.94;74.16
42633;BME280;28261;53.304;-6.284;2023-07-02T06:22:58;100609.66;;;13.99;73.63
42633;BME280;28261;53.304;-6.284;2023-07-02T06:25:01;100612.66;;;14.06;73.67
42633;BME280;28261;53.304;-6.284;2023-07-02T06:27:06;100614.94;;;14.11;73.13
42633;BME280;28261;53.304;-6.284;2023-07-02T06:29:10;100594.19;;;14.14;72.72
42633;BME280;28261;53.304;-6.284;2023-07-02T06:31:14;100601.22;;;14.15;72.66
42633;BME280;28261;53.304;-6.284;2023-07-02T06:33:17;100603.88;;;14.15;71.91
42633;BME280;28261;53.304;-6.284;2023-07-02T06:35:22;100603.16;;;14.13;72.02
42633;BME280;28261;53.304;-6.284;2023-07-02T06:37:25;100605.13;;;14.11;72.21
42633;BME280;28261;53.304;-6.284;2023-07-02T06:39:29;100608.06;;;14.08;72.09
42633;BME280;28261;53.304;-6.284;2023-07-02T06:41:32;100608.19;;;14.07;72.49
42633;BME280;28261;53.304;-6.284;2023-07-02T06:43:37;100602.97;;;14.05;72.48
42633;BME280;28261;53.304;-6.284;2023-07-02T06:45:40;100604.78;;;14.04;72.80
42633;BME280;28261;53.304;-6.284;2023-07-02T06:47:44;100605.75;;;14.03;72.47
42633;BME280;28261;53.304;-6.284;2023-07-02T06:49:49;100605.53;;;14.07;73.14
42633;BME280;28261;53.304;-6.284;2023-07-02T06:51:54;100604.38;;;14.09;73.08
42633;BME280;28261;53.304;-6.284;2023-07-02T06:53:58;100603.16;;;14.13;72.57
42633;BME280;28261;53.304;-6.284;2023-07-02T06:56:01;100608.00;;;14.19;72.57
42633;BME280;28261;53.304;-6.284;2023-07-02T06:58:05;100609.16;;;14.27;72.62
42633;BME280;28261;53.304;-6.284;2023-07-02T07:00:09;100605.97;;;14.33;72.03
42633;BME280;28261;53.304;-6.284;2023-07-02T07:02:13;100606.94;;;14.32;71.96
42633;BME280;28261;53.304;-6.284;2023-07-02T07:04:16;100602.59;;;14.31;71.86
42633;BME280;28261;53.304;-6.284;2023-07-02T07:06:20;100600.78;;;14.31;72.11
42633;BME280;28261;53.304;-6.284;2023-07-02T07:08:25;100610.34;;;14.34;72.29
42633;BME280;28261;53.304;-6.284;2023-07-02T07:10:29;100606.53;;;14.36;71.90
42633;BME280;28261;53.304;-6.284;2023-07-02T07:12:36;100601.81;;;14.40;71.97
42633;BME280;28261;53.304;-6.284;2023-07-02T07:14:39;100614.63;;;14.46;71.27
42633;BME280;28261;53.304;-6.284;2023-07-02T07:16:44;100615.59;;;14.45;70.79
42633;BME280;28261;53.304;-6.284;2023-07-02T07:18:47;100614.88;;;14.43;70.85
42633;BME280;28261;53.304;-6.284;2023-07-02T07:20:51;100617.41;;;14.45;70.53
42633;BME280;28261;53.304;-6.284;2023-07-02T07:22:55;100619.38;;;14.43;70.72
42633;BME280;28261;53.304;-6.284;2023-07-02T07:25:00;100613.31;;;14.41;70.18
42633;BME280;28261;53.304;-6.284;2023-07-02T07:27:04;100617.53;;;14.43;70.61
42633;BME280;28261;53.304;-6.284;2023-07-02T07:29:08;100619.97;;;14.46;70.60
42633;BME280;28261;53.304;-6.284;2023-07-02T07:31:11;100628.66;;;14.48;70.15
42633;BME280;28261;53.304;-6.284;2023-07-02T07:33:14;100623.34;;;14.48;69.93
42633;BME280;28261;53.304;-6.284;2023-07-02T07:35:18;100615.19;;;14.50;70.28
42633;BME280;28261;53.304;-6.284;2023-07-02T07:37:23;100613.00;;;14.55;70.32
42633;BME280;28261;53.304;-6.284;2023-07-02T07:39:27;100621.53;;;14.70;69.80
42633;BME280;28261;53.304;-6.284;2023-07-02T07:41:32;100615.13;;;14.82;69.54
42633;BME280;28261;53.304;-6.284;2023-07-02T07:43:36;100610.69;;;14.93;69.05
42633;BME280;28261;53.304;-6.284;2023-07-02T07:45:41;100612.41;;;15.03;68.60
42633;BME280;28261;53.304;-6.284;2023-07-02T07:47:48;100609.19;;;15.10;68.21
42633;BME280;28261;53.304;-6.284;2023-07-02T07:49:54;100606.09;;;15.14;68.15
42633;BME280;28261;53.304;-6.284;2023-07-02T07:51:59;100613.91;;;15.27;68.28
42633;BME280;28261;53.304;-6.284;2023-07-02T07:54:04;100611.25;;;15.37;67.34
42633;BME280;28261;53.304;-6.284;2023-07-02T07:56:09;100613.34;;;15.43;67.03
42633;BME280;28261;53.304;-6.284;2023-07-02T07:58:15;100613.09;;;15.46;67.19
42633;BME280;28261;53.304;-6.284;2023-07-02T08:00:20;100602.13;;;15.49;66.72
42633;BME280;28261;53.304;-6.284;2023-07-02T08:02:24;100614.50;;;15.50;66.76
42633;BME280;28261;53.304;-6.284;2023-07-02T08:04:27;100604.81;;;15.49;66.45
42633;BME280;28261;53.304;-6.284;2023-07-02T08:06:32;100608.59;;;15.47;66.62
42633;BME280;28261;53.304;-6.284;2023-07-02T08:08:36;100601.56;;;15.46;66.80
42633;BME280;28261;53.304;-6.284;2023-07-02T08:10:40;100604.09;;;15.47;66.74
42633;BME280;28261;53.304;-6.284;2023-07-02T08:12:44;100602.56;;;15.45;66.25
42633;BME280;28261;53.304;-6.284;2023-07-02T08:14:49;100601.69;;;15.44;66.38
42633;BME280;28261;53.304;-6.284;2023-07-02T08:16:54;100602.81;;;15.42;66.45
42633;BME280;28261;53.304;-6.284;2023-07-02T08:18:58;100606.59;;;15.39;65.64
42633;BME280;28261;53.304;-6.284;2023-07-02T08:21:02;100599.97;;;15.33;65.20
42633;BME280;28261;53.304;-6.284;2023-07-02T08:23:06;100605.31;;;15.33;65.08
42633;BME280;28261;53.304;-6.284;2023-07-02T08:25:10;100608.84;;;15.34;64.68
42633;BME280;28261;53.304;-6.284;2023-07-02T08:27:13;100589.75;;;15.38;64.23
42633;BME280;28261;53.304;-6.284;2023-07-02T08:29:18;100603.53;;;15.53;64.08
42633;BME280;28261;53.304;-6.284;2023-07-02T08:31:23;100599.63;;;15.77;62.85
42633;BME280;28261;53.304;-6.284;2023-07-02T08:33:27;100597.97;;;15.96;61.79
42633;BME280;28261;53.304;-6.284;2023-07-02T08:35:30;100604.28;;;16.14;61.23
42633;BME280;28261;53.304;-6.284;2023-07-02T08:37:34;100600.75;;;16.33;60.46
42633;BME280;28261;53.304;-6.284;2023-07-02T08:39:38;100593.53;;;16.53;59.69
42633;BME280;28261;53.304;-6.284;2023-07-02T08:41:43;100599.53;;;16.75;59.40
42633;BME280;28261;53.304;-6.284;2023-07-02T08:43:47;100595.00;;;16.85;57.52
42633;BME280;28261;53.304;-6.284;2023-07-02T08:45:52;100601.47;;;16.92;57.78
42633;BME280;28261;53.304;-6.284;2023-07-02T08:47:58;100592.00;;;16.88;56.93
42633;BME280;28261;53.304;-6.284;2023-07-02T08:50:02;100599.78;;;16.82;56.72
42633;BME280;28261;53.304;-6.284;2023-07-02T08:52:07;100593.44;;;16.83;56.45
42633;BME280;28261;53.304;-6.284;2023-07-02T08:54:10;100583.56;;;16.83;55.86
42633;BME280;28261;53.304;-6.284;2023-07-02T08:56:14;100588.91;;;16.83;56.12
42633;BME280;28261;53.304;-6.284;2023-07-02T08:58:18;100582.72;;;16.92;56.10
42633;BME280;28261;53.304;-6.284;2023-07-02T09:00:22;100595.91;;;17.04;55.98
42633;BME280;28261;53.304;-6.284;2023-07-02T09:02:32;100588.44;;;17.07;55.41
42633;BME280;28261;53.304;-6.284;2023-07-02T09:04:37;100588.72;;;17.04;55.41
42633;BME280;28261;53.304;-6.284;2023-07-02T09:06:41;100582.50;;;17.04;55.49
42633;BME280;28261;53.304;-6.284;2023-07-02T09:08:45;100574.31;;;17.05;55.05
42633;BME280;28261;53.304;-6.284;2023-07-02T09:10:49;100580.81;;;17.03;54.92
42633;BME280;28261;53.304;-6.284;2023-07-02T09:13:03;100580.25;;;17.09;55.47
42633;BME280;28261;53.304;-6.284;2023-07-02T09:15:07;100580.34;;;17.17;54.72
42633;BME280;28261;53.304;-6.284;2023-07-02T09:17:12;100574.00;;;17.18;54.63
42633;BME280;28261;53.304;-6.284;2023-07-02T09:19:16;100576.06;;;17.24;54.79
42633;BME280;28261;53.304;-6.284;2023-07-02T09:21:22;100575.91;;;17.26;54.38
42633;BME280;28261;53.304;-6.284;2023-07-02T09:23:34;100582.03;;;17.18;54.55
42633;BME280;28261;53.304;-6.284;2023-07-02T09:25:39;100575.28;;;17.14;54.89
42633;BME280;28261;53.304;-6.284;2023-07-02T09:27:44;100573.91;;;17.10;55.01
42633;BME280;28261;53.304;-6.284;2023-07-02T09:29:51;100573.66;;;17.03;54.04
42633;BME280;28261;53.304;-6.284;2023-07-02T09:31:56;100582.00;;;16.90;54.01
42633;BME280;28261;53.304;-6.284;2023-07-02T09:34:11;100581.91;;;16.72;54.47
42633;BME280;28261;53.304;-6.284;2023-07-02T09:36:15;100584.78;;;16.61;54.80
42633;BME280;28261;53.304;-6.284;2023-07-02T09:38:20;100582.56;;;16.47;55.01
42633;BME280;28261;53.304;-6.284;2023-07-02T09:40:24;100588.78;;;16.28;55.70
42633;BME280;28261;53.304;-6.284;2023-07-02T09:42:31;100584.47;;;16.07;56.05
42633;BME280;28261;53.304;-6.284;2023-07-02T09:44:37;100588.56;;;15.92;56.25
42633;BME280;28261;53.304;-6.284;2023-07-02T09:46:48;100580.09;;;15.86;56.58
42633;BME280;28261;53.304;-6.284;2023-07-02T09:48:53;100584.19;;;15.90;56.48
42633;BME280;28261;53.304;-6.284;2023-07-02T09:50:58;100585.44;;;15.96;55.53
42633;BME280;28261;53.304;-6.284;2023-07-02T09:53:02;100587.00;;;15.99;55.57
42633;BME280;28261;53.304;-6.284;2023-07-02T09:55:08;100578.81;;;16.10;55.19
42633;BME280;28261;53.304;-6.284;2023-07-02T09:57:13;100566.28;;;16.20;55.00
42633;BME280;28261;53.304;-6.284;2023-07-02T09:59:16;100572.59;;;16.39;55.22
42633;BME280;28261;53.304;-6.284;2023-07-02T10:01:20;100579.16;;;16.54;55.06
42633;BME280;28261;53.304;-6.284;2023-07-02T10:03:30;100578.28;;;16.64;53.99
42633;BME280;28261;53.304;-6.284;2023-07-02T10:05:34;100573.88;;;16.72;54.11
42633;BME280;28261;53.304;-6.284;2023-07-02T10:07:38;100565.97;;;16.81;53.36
42633;BME280;28261;53.304;-6.284;2023-07-02T10:09:44;100561.31;;;16.92;53.62
42633;BME280;28261;53.304;-6.284;2023-07-02T10:11:50;100564.16;;;17.09;53.23
42633;BME280;28261;53.304;-6.284;2023-07-02T10:14:00;100560.97;;;17.23;53.03
42633;BME280;28261;53.304;-6.284;2023-07-02T10:16:04;100569.66;;;17.35;53.37
42633;BME280;28261;53.304;-6.284;2023-07-02T10:18:08;100571.44;;;17.45;52.97
42633;BME280;28261;53.304;-6.284;2023-07-02T10:20:12;100567.88;;;17.44;52.29
42633;BME280;28261;53.304;-6.284;2023-07-02T10:22:18;100558.34;;;17.41;52.21
42633;BME280;28261;53.304;-6.284;2023-07-02T10:24:22;100562.84;;;17.41;52.12
42633;BME280;28261;53.304;-6.284;2023-07-02T10:26:25;100557.47;;;17.41;51.88
42633;BME280;28261;53.304;-6.284;2023-07-02T10:28:31;100569.66;;;17.35;51.75
42633;BME280;28261;53.304;-6.284;2023-07-02T10:30:36;100570.28;;;17.29;51.85
42633;BME280;28261;53.304;-6.284;2023-07-02T10:32:40;100557.31;;;17.24;52.33
42633;BME280;28261;53.304;-6.284;2023-07-02T10:34:43;100561.28;;;17.20;52.10
42633;BME280;28261;53.304;-6.284;2023-07-02T10:36:53;100574.28;;;17.15;52.02
42633;BME280;28261;53.304;-6.284;2023-07-02T10:39:01;100560.63;;;17.08;52.77
42633;BME280;28261;53.304;-6.284;2023-07-02T10:41:07;100560.19;;;17.13;52.57
42633;BME280;28261;53.304;-6.284;2023-07-02T10:43:11;100556.47;;;17.24;52.71